Terminal Aerodrome Forecast
Issued by NWS Grand Forks, ND

Home | Current Version | Previous Version | Text Only | Print | Product List | Glossary Off
Versions: 1 2 3 4 5 6 7 8 9 10 11 12 13 14 15 16 17 18 19

000
FTUS43 KFGF 191313 AAA
TAFFAR
TAF AMD
KFAR 191313Z 1913/2012 17008KT 3/4SM BR BKN002
      TEMPO 1914/1915 2SM BR SCT002
     FM191500 17009KT P6SM SCT008
     FM192000 17008KT P6SM BKN070
     FM192300 17008KT P6SM BKN015
     FM200900 16006KT 4SM BR BKN008=

USA.gov is the U.S. government's official web portal to all federal, state and local government web resources and services.